sensor_id;sensor_type;location;lat;lon;timestamp;P1;durP1;ratioP1;P2;durP2;ratioP2
27491;SDS011;14927;51.210;6.838;2023-05-28T00:02:08;8.00;;;4.03;;
27491;SDS011;14927;51.210;6.838;2023-05-28T00:04:53;6.88;;;4.18;;
27491;SDS011;14927;51.210;6.838;2023-05-28T00:07:38;10.70;;;4.35;;
27491;SDS011;14927;51.210;6.838;2023-05-28T00:10:23;12.07;;;4.20;;
27491;SDS011;14927;51.210;6.838;2023-05-28T00:13:08;7.95;;;3.92;;
27491;SDS011;14927;51.210;6.838;2023-05-28T00:15:53;8.55;;;3.78;;
27491;SDS011;14927;51.210;6.838;2023-05-28T00:18:38;6.60;;;3.35;;
27491;SDS011;14927;51.210;6.838;2023-05-28T00:21:22;8.18;;;3.90;;
27491;SDS011;14927;51.210;6.838;2023-05-28T00:24:07;6.80;;;3.30;;
27491;SDS011;14927;51.210;6.838;2023-05-28T00:26:52;9.15;;;4.28;;
27491;SDS011;14927;51.210;6.838;2023-05-28T00:29:36;8.45;;;3.88;;
27491;SDS011;14927;51.210;6.838;2023-05-28T00:32:21;8.98;;;4.00;;
27491;SDS011;14927;51.210;6.838;2023-05-28T00:35:06;8.05;;;4.25;;
27491;SDS011;14927;51.210;6.838;2023-05-28T00:37:50;8.13;;;4.15;;
27491;SDS011;14927;51.210;6.838;2023-05-28T00:40:36;9.13;;;4.40;;
27491;SDS011;14927;51.210;6.838;2023-05-28T00:43:20;8.73;;;4.60;;
27491;SDS011;14927;51.210;6.838;2023-05-28T00:46:05;10.85;;;4.13;;
27491;SDS011;14927;51.210;6.838;2023-05-28T00:48:50;9.45;;;4.63;;
27491;SDS011;14927;51.210;6.838;2023-05-28T00:51:35;9.15;;;4.75;;
27491;SDS011;14927;51.210;6.838;2023-05-28T00:54:20;5.78;;;3.90;;
27491;SDS011;14927;51.210;6.838;2023-05-28T00:57:07;7.20;;;4.38;;
27491;SDS011;14927;51.210;6.838;2023-05-28T00:59:51;8.77;;;4.40;;
27491;SDS011;14927;51.210;6.838;2023-05-28T01:02:40;7.38;;;4.95;;
27491;SDS011;14927;51.210;6.838;2023-05-28T01:05:25;8.70;;;4.75;;
27491;SDS011;14927;51.210;6.838;2023-05-28T01:08:10;8.82;;;4.32;;
27491;SDS011;14927;51.210;6.838;2023-05-28T01:10:54;11.63;;;4.35;;
27491;SDS011;14927;51.210;6.838;2023-05-28T01:13:39;7.43;;;4.53;;
27491;SDS011;14927;51.210;6.838;2023-05-28T01:16:24;8.40;;;3.90;;
27491;SDS011;14927;51.210;6.838;2023-05-28T01:19:12;7.22;;;4.30;;
27491;SDS011;14927;51.210;6.838;2023-05-28T01:22:04;9.00;;;4.93;;
27491;SDS011;14927;51.210;6.838;2023-05-28T01:24:49;10.27;;;4.50;;
27491;SDS011;14927;51.210;6.838;2023-05-28T01:27:42;10.30;;;4.43;;
27491;SDS011;14927;51.210;6.838;2023-05-28T01:30:26;8.02;;;4.32;;
27491;SDS011;14927;51.210;6.838;2023-05-28T01:33:11;8.65;;;4.65;;
27491;SDS011;14927;51.210;6.838;2023-05-28T01:35:56;8.48;;;4.10;;
27491;SDS011;14927;51.210;6.838;2023-05-28T01:38:42;8.90;;;4.30;;
27491;SDS011;14927;51.210;6.838;2023-05-28T01:41:33;10.00;;;4.80;;
27491;SDS011;14927;51.210;6.838;2023-05-28T01:44:18;12.23;;;4.65;;
27491;SDS011;14927;51.210;6.838;2023-05-28T01:47:03;8.18;;;4.25;;
27491;SDS011;14927;51.210;6.838;2023-05-28T01:49:48;7.57;;;4.50;;
27491;SDS011;14927;51.210;6.838;2023-05-28T01:52:33;8.18;;;4.18;;
27491;SDS011;14927;51.210;6.838;2023-05-28T01:55:17;6.97;;;3.67;;
27491;SDS011;14927;51.210;6.838;2023-05-28T01:58:03;8.68;;;4.07;;
27491;SDS011;14927;51.210;6.838;2023-05-28T02:00:59;10.57;;;4.55;;
27491;SDS011;14927;51.210;6.838;2023-05-28T02:03:56;8.00;;;4.25;;
27491;SDS011;14927;51.210;6.838;2023-05-28T02:06:44;10.27;;;4.90;;
27491;SDS011;14927;51.210;6.838;2023-05-28T02:09:29;11.27;;;4.50;;
27491;SDS011;14927;51.210;6.838;2023-05-28T02:12:13;8.18;;;4.70;;
27491;SDS011;14927;51.210;6.838;2023-05-28T02:14:59;12.60;;;4.32;;
27491;SDS011;14927;51.210;6.838;2023-05-28T02:17:44;6.13;;;4.15;;
27491;SDS011;14927;51.210;6.838;2023-05-28T02:20:29;8.88;;;4.28;;
27491;SDS011;14927;51.210;6.838;2023-05-28T02:23:14;11.40;;;4.88;;
27491;SDS011;14927;51.210;6.838;2023-05-28T02:25:58;9.13;;;4.38;;
27491;SDS011;14927;51.210;6.838;2023-05-28T02:28:45;12.15;;;4.28;;
27491;SDS011;14927;51.210;6.838;2023-05-28T02:31:30;8.70;;;4.80;;
27491;SDS011;14927;51.210;6.838;2023-05-28T02:34:14;11.32;;;4.60;;
27491;SDS011;14927;51.210;6.838;2023-05-28T02:37:00;6.75;;;4.45;;
27491;SDS011;14927;51.210;6.838;2023-05-28T02:39:44;8.52;;;4.65;;
27491;SDS011;14927;51.210;6.838;2023-05-28T02:42:29;9.60;;;4.25;;
27491;SDS011;14927;51.210;6.838;2023-05-28T02:45:14;10.15;;;4.75;;
27491;SDS011;14927;51.210;6.838;2023-05-28T02:47:58;9.25;;;4.43;;
27491;SDS011;14927;51.210;6.838;2023-05-28T02:50:43;9.82;;;4.45;;
27491;SDS011;14927;51.210;6.838;2023-05-28T02:53:28;7.15;;;4.57;;
27491;SDS011;14927;51.210;6.838;2023-05-28T02:56:17;8.80;;;4.72;;
27491;SDS011;14927;51.210;6.838;2023-05-28T02:59:02;8.95;;;4.47;;
27491;SDS011;14927;51.210;6.838;2023-05-28T03:01:47;9.70;;;4.20;;
27491;SDS011;14927;51.210;6.838;2023-05-28T03:04:31;11.98;;;4.72;;
27491;SDS011;14927;51.210;6.838;2023-05-28T03:07:16;8.73;;;4.47;;
27491;SDS011;14927;51.210;6.838;2023-05-28T03:10:01;7.40;;;4.45;;
27491;SDS011;14927;51.210;6.838;2023-05-28T03:12:47;8.25;;;4.38;;
27491;SDS011;14927;51.210;6.838;2023-05-28T03:15:31;7.75;;;4.45;;
27491;SDS011;14927;51.210;6.838;2023-05-28T03:18:16;7.80;;;4.75;;
27491;SDS011;14927;51.210;6.838;2023-05-28T03:21:01;7.85;;;5.00;;
27491;SDS011;14927;51.210;6.838;2023-05-28T03:23:45;10.20;;;4.97;;
27491;SDS011;14927;51.210;6.838;2023-05-28T03:26:30;11.90;;;5.72;;
27491;SDS011;14927;51.210;6.838;2023-05-28T03:29:15;9.52;;;4.55;;
27491;SDS011;14927;51.210;6.838;2023-05-28T03:32:00;9.55;;;4.47;;
27491;SDS011;14927;51.210;6.838;2023-05-28T03:34:44;10.40;;;4.97;;
27491;SDS011;14927;51.210;6.838;2023-05-28T03:37:29;9.50;;;4.75;;
27491;SDS011;14927;51.210;6.838;2023-05-28T03:40:14;9.02;;;4.82;;
27491;SDS011;14927;51.210;6.838;2023-05-28T03:42:58;15.38;;;5.05;;
27491;SDS011;14927;51.210;6.838;2023-05-28T03:45:43;7.68;;;4.47;;
27491;SDS011;14927;51.210;6.838;2023-05-28T03:48:28;8.48;;;4.88;;
27491;SDS011;14927;51.210;6.838;2023-05-28T03:51:12;7.57;;;4.72;;
27491;SDS011;14927;51.210;6.838;2023-05-28T03:53:57;12.15;;;4.57;;
27491;SDS011;14927;51.210;6.838;2023-05-28T03:56:42;11.48;;;4.75;;
27491;SDS011;14927;51.210;6.838;2023-05-28T03:59:27;7.75;;;4.45;;
27491;SDS011;14927;51.210;6.838;2023-05-28T04:02:11;11.43;;;4.78;;
27491;SDS011;14927;51.210;6.838;2023-05-28T04:04:56;11.55;;;5.05;;
27491;SDS011;14927;51.210;6.838;2023-05-28T04:07:40;8.43;;;4.30;;
27491;SDS011;14927;51.210;6.838;2023-05-28T04:10:25;12.82;;;4.53;;
27491;SDS011;14927;51.210;6.838;2023-05-28T04:13:10;10.05;;;4.60;;
27491;SDS011;14927;51.210;6.838;2023-05-28T04:15:54;10.73;;;5.30;;
27491;SDS011;14927;51.210;6.838;2023-05-28T04:18:39;9.13;;;4.38;;
27491;SDS011;14927;51.210;6.838;2023-05-28T04:21:24;9.60;;;4.35;;
27491;SDS011;14927;51.210;6.838;2023-05-28T04:24:08;10.23;;;4.85;;
27491;SDS011;14927;51.210;6.838;2023-05-28T04:26:53;9.07;;;4.70;;
27491;SDS011;14927;51.210;6.838;2023-05-28T04:29:37;11.27;;;4.78;;
27491;SDS011;14927;51.210;6.838;2023-05-28T04:32:22;9.35;;;4.80;;
27491;SDS011;14927;51.210;6.838;2023-05-28T04:35:07;8.23;;;4.55;;
27491;SDS011;14927;51.210;6.838;2023-05-28T04:37:52;9.05;;;4.82;;
27491;SDS011;14927;51.210;6.838;2023-05-28T04:40:37;7.05;;;4.28;;
27491;SDS011;14927;51.210;6.838;2023-05-28T04:43:21;7.80;;;4.68;;
27491;SDS011;14927;51.210;6.838;2023-05-28T04:46:06;8.40;;;4.45;;
27491;SDS011;14927;51.210;6.838;2023-05-28T04:48:52;11.52;;;4.63;;
27491;SDS011;14927;51.210;6.838;2023-05-28T04:51:37;10.70;;;4.90;;
27491;SDS011;14927;51.210;6.838;2023-05-28T04:54:22;7.97;;;4.75;;
27491;SDS011;14927;51.210;6.838;2023-05-28T04:57:06;7.75;;;4.25;;
27491;SDS011;14927;51.210;6.838;2023-05-28T04:59:51;9.05;;;4.53;;
27491;SDS011;14927;51.210;6.838;2023-05-28T05:02:35;7.47;;;4.00;;
27491;SDS011;14927;51.210;6.838;2023-05-28T05:05:20;11.98;;;4.95;;
27491;SDS011;14927;51.210;6.838;2023-05-28T05:08:05;6.93;;;4.03;;
27491;SDS011;14927;51.210;6.838;2023-05-28T05:10:50;8.27;;;4.43;;
27491;SDS011;14927;51.210;6.838;2023-05-28T05:13:35;7.63;;;3.47;;
27491;SDS011;14927;51.210;6.838;2023-05-28T05:16:19;9.05;;;4.43;;
27491;SDS011;14927;51.210;6.838;2023-05-28T05:19:04;6.13;;;4.30;;
27491;SDS011;14927;51.210;6.838;2023-05-28T05:21:48;8.45;;;3.90;;
27491;SDS011;14927;51.210;6.838;2023-05-28T05:24:33;11.57;;;4.78;;
27491;SDS011;14927;51.210;6.838;2023-05-28T05:27:17;7.38;;;4.00;;
27491;SDS011;14927;51.210;6.838;2023-05-28T05:30:05;7.00;;;4.10;;
27491;SDS011;14927;51.210;6.838;2023-05-28T05:32:50;10.80;;;4.40;;
27491;SDS011;14927;51.210;6.838;2023-05-28T05:35:35;8.68;;;4.40;;
27491;SDS011;14927;51.210;6.838;2023-05-28T05:38:19;9.82;;;4.63;;
27491;SDS011;14927;51.210;6.838;2023-05-28T05:41:04;8.93;;;4.45;;
27491;SDS011;14927;51.210;6.838;2023-05-28T05:43:49;10.30;;;4.57;;
27491;SDS011;14927;51.210;6.838;2023-05-28T05:46:33;7.55;;;3.47;;
27491;SDS011;14927;51.210;6.838;2023-05-28T05:49:18;9.18;;;4.05;;
27491;SDS011;14927;51.210;6.838;2023-05-28T05:52:03;9.82;;;4.10;;
27491;SDS011;14927;51.210;6.838;2023-05-28T05:54:47;7.50;;;4.45;;
27491;SDS011;14927;51.210;6.838;2023-05-28T05:57:32;7.57;;;4.10;;
27491;SDS011;14927;51.210;6.838;2023-05-28T06:00:17;8.00;;;4.05;;
27491;SDS011;14927;51.210;6.838;2023-05-28T06:03:02;7.32;;;3.95;;
27491;SDS011;14927;51.210;6.838;2023-05-28T06:05:47;10.00;;;4.07;;
27491;SDS011;14927;51.210;6.838;2023-05-28T06:08:31;9.25;;;3.85;;
27491;SDS011;14927;51.210;6.838;2023-05-28T06:11:16;9.35;;;4.10;;
27491;SDS011;14927;51.210;6.838;2023-05-28T06:14:01;7.47;;;3.63;;
27491;SDS011;14927;51.210;6.838;2023-05-28T06:16:48;7.20;;;4.00;;
27491;SDS011;14927;51.210;6.838;2023-05-28T06:19:33;7.05;;;3.15;;
27491;SDS011;14927;51.210;6.838;2023-05-28T06:22:18;7.10;;;3.17;;
27491;SDS011;14927;51.210;6.838;2023-05-28T06:25:03;7.28;;;3.97;;
27491;SDS011;14927;51.210;6.838;2023-05-28T06:27:48;7.47;;;3.75;;
27491;SDS011;14927;51.210;6.838;2023-05-28T06:30:33;7.25;;;3.50;;
27491;SDS011;14927;51.210;6.838;2023-05-28T06:33:18;9.48;;;4.22;;
27491;SDS011;14927;51.210;6.838;2023-05-28T06:36:03;7.07;;;3.97;;
27491;SDS011;14927;51.210;6.838;2023-05-28T06:38:47;9.73;;;4.63;;
27491;SDS011;14927;51.210;6.838;2023-05-28T06:41:32;8.68;;;4.28;;
27491;SDS011;14927;51.210;6.838;2023-05-28T06:44:17;6.30;;;3.33;;
27491;SDS011;14927;51.210;6.838;2023-05-28T06:47:01;9.38;;;4.20;;
27491;SDS011;14927;51.210;6.838;2023-05-28T06:49:46;6.55;;;3.60;;
27491;SDS011;14927;51.210;6.838;2023-05-28T06:52:31;7.38;;;3.50;;
27491;SDS011;14927;51.210;6.838;2023-05-28T06:55:15;8.85;;;3.97;;
27491;SDS011;14927;51.210;6.838;2023-05-28T06:58:00;6.78;;;3.35;;
27491;SDS011;14927;51.210;6.838;2023-05-28T07:00:44;7.25;;;3.55;;
27491;SDS011;14927;51.210;6.838;2023-05-28T07:03:29;6.15;;;2.85;;
27491;SDS011;14927;51.210;6.838;2023-05-28T07:06:14;7.47;;;3.65;;
27491;SDS011;14927;51.210;6.838;2023-05-28T07:08:59;8.32;;;3.55;;
27491;SDS011;14927;51.210;6.838;2023-05-28T07:11:44;7.50;;;3.38;;
27491;SDS011;14927;51.210;6.838;2023-05-28T07:14:29;6.32;;;3.50;;
27491;SDS011;14927;51.210;6.838;2023-05-28T07:17:13;6.25;;;3.25;;
27491;SDS011;14927;51.210;6.838;2023-05-28T07:19:58;5.07;;;3.25;;
27491;SDS011;14927;51.210;6.838;2023-05-28T07:22:43;8.63;;;3.47;;
27491;SDS011;14927;51.210;6.838;2023-05-28T07:25:27;8.18;;;3.40;;
27491;SDS011;14927;51.210;6.838;2023-05-28T07:28:12;7.50;;;3.15;;
27491;SDS011;14927;51.210;6.838;2023-05-28T07:30:57;8.65;;;3.40;;
27491;SDS011;14927;51.210;6.838;2023-05-28T07:33:41;6.78;;;3.05;;
27491;SDS011;14927;51.210;6.838;2023-05-28T07:36:26;6.93;;;3.50;;
27491;SDS011;14927;51.210;6.838;2023-05-28T07:39:10;6.60;;;2.83;;
27491;SDS011;14927;51.210;6.838;2023-05-28T07:41:55;6.93;;;2.80;;
27491;SDS011;14927;51.210;6.838;2023-05-28T07:44:40;5.90;;;2.92;;
27491;SDS011;14927;51.210;6.838;2023-05-28T07:47:24;8.10;;;3.30;;
27491;SDS011;14927;51.210;6.838;2023-05-28T07:50:09;7.47;;;3.10;;
27491;SDS011;14927;51.210;6.838;2023-05-28T07:52:54;5.82;;;2.42;;
27491;SDS011;14927;51.210;6.838;2023-05-28T07:55:39;5.28;;;2.38;;
27491;SDS011;14927;51.210;6.838;2023-05-28T07:58:23;6.95;;;2.60;;
27491;SDS011;14927;51.210;6.838;2023-05-28T08:01:08;8.25;;;2.50;;
27491;SDS011;14927;51.210;6.838;2023-05-28T08:03:55;5.82;;;2.85;;
27491;SDS011;14927;51.210;6.838;2023-05-28T08:06:40;6.95;;;2.70;;
27491;SDS011;14927;51.210;6.838;2023-05-28T08:09:25;5.18;;;2.78;;
27491;SDS011;14927;51.210;6.838;2023-05-28T08:12:09;8.13;;;3.45;;
27491;SDS011;14927;51.210;6.838;2023-05-28T08:14:54;6.50;;;2.88;;
27491;SDS011;14927;51.210;6.838;2023-05-28T08:17:38;8.48;;;3.17;;
27491;SDS011;14927;51.210;6.838;2023-05-28T08:20:23;6.75;;;3.25;;
27491;SDS011;14927;51.210;6.838;2023-05-28T08:23:08;5.22;;;2.25;;
27491;SDS011;14927;51.210;6.838;2023-05-28T08:25:52;6.82;;;3.47;;
27491;SDS011;14927;51.210;6.838;2023-05-28T08:28:37;6.53;;;3.08;;
27491;SDS011;14927;51.210;6.838;2023-05-28T08:31:21;8.30;;;3.38;;
27491;SDS011;14927;51.210;6.838;2023-05-28T08:34:07;7.95;;;2.70;;
27491;SDS011;14927;51.210;6.838;2023-05-28T08:36:52;5.50;;;2.70;;
27491;SDS011;14927;51.210;6.838;2023-05-28T08:39:36;6.68;;;3.33;;
27491;SDS011;14927;51.210;6.838;2023-05-28T08:42:21;7.13;;;3.30;;
27491;SDS011;14927;51.210;6.838;2023-05-28T08:45:06;8.05;;;3.00;;
27491;SDS011;14927;51.210;6.838;2023-05-28T08:47:51;6.43;;;3.08;;
27491;SDS011;14927;51.210;6.838;2023-05-28T08:50:37;7.18;;;3.00;;
27491;SDS011;14927;51.210;6.838;2023-05-28T08:53:24;9.32;;;3.42;;
27491;SDS011;14927;51.210;6.838;2023-05-28T08:56:14;9.25;;;3.50;;
27491;SDS011;14927;51.210;6.838;2023-05-28T08:58:58;6.00;;;3.22;;
27491;SDS011;14927;51.210;6.838;2023-05-28T09:01:43;10.10;;;3.60;;
27491;SDS011;14927;51.210;6.838;2023-05-28T09:04:27;11.13;;;3.85;;
27491;SDS011;14927;51.210;6.838;2023-05-28T09:07:12;8.52;;;3.58;;
27491;SDS011;14927;51.210;6.838;2023-05-28T09:09:56;7.20;;;3.20;;
27491;SDS011;14927;51.210;6.838;2023-05-28T09:12:56;10.00;;;3.30;;
27491;SDS011;14927;51.210;6.838;2023-05-28T09:15:44;7.03;;;3.03;;
27491;SDS011;14927;51.210;6.838;2023-05-28T09:18:37;7.28;;;3.75;;
27491;SDS011;14927;51.210;6.838;2023-05-28T09:21:22;9.32;;;3.40;;
27491;SDS011;14927;51.210;6.838;2023-05-28T09:24:06;9.77;;;3.28;;
27491;SDS011;14927;51.210;6.838;2023-05-28T09:26:53;7.53;;;2.95;;
27491;SDS011;14927;51.210;6.838;2023-05-28T09:29:39;8.68;;;3.35;;
27491;SDS011;14927;51.210;6.838;2023-05-28T09:32:23;6.45;;;3.38;;
27491;SDS011;14927;51.210;6.838;2023-05-28T09:35:08;9.25;;;2.95;;
27491;SDS011;14927;51.210;6.838;2023-05-28T09:38:05;5.88;;;2.80;;
27491;SDS011;14927;51.210;6.838;2023-05-28T09:40:57;8.10;;;3.10;;
27491;SDS011;14927;51.210;6.838;2023-05-28T09:43:41;10.18;;;3.55;;
27491;SDS011;14927;51.210;6.838;2023-05-28T09:46:27;7.65;;;3.30;;
27491;SDS011;14927;51.210;6.838;2023-05-28T09:49:15;8.73;;;3.28;;
27491;SDS011;14927;51.210;6.838;2023-05-28T09:52:00;6.05;;;3.22;;
27491;SDS011;14927;51.210;6.838;2023-05-28T09:54:50;8.60;;;3.22;;
27491;SDS011;14927;51.210;6.838;2023-05-28T09:57:44;5.63;;;2.80;;
27491;SDS011;14927;51.210;6.838;2023-05-28T10:00:35;8.32;;;3.47;;
27491;SDS011;14927;51.210;6.838;2023-05-28T10:04:00;5.68;;;2.58;;
27491;SDS011;14927;51.210;6.838;2023-05-28T10:06:52;8.02;;;3.28;;
27491;SDS011;14927;51.210;6.838;2023-05-28T10:09:37;8.02;;;3.80;;
27491;SDS011;14927;51.210;6.838;2023-05-28T10:12:25;5.70;;;2.80;;
27491;SDS011;14927;51.210;6.838;2023-05-28T10:15:14;6.65;;;2.80;;
27491;SDS011;14927;51.210;6.838;2023-05-28T10:17:58;5.63;;;2.88;;
27491;SDS011;14927;51.210;6.838;2023-05-28T10:20:44;8.32;;;3.28;;
27491;SDS011;14927;51.210;6.838;2023-05-28T10:23:28;6.53;;;3.13;;
27491;SDS011;14927;51.210;6.838;2023-05-28T10:26:13;10.52;;;2.90;;
27491;SDS011;14927;51.210;6.838;2023-05-28T10:28:59;4.85;;;2.90;;
27491;SDS011;14927;51.210;6.838;2023-05-28T10:31:43;7.40;;;3.20;;
27491;SDS011;14927;51.210;6.838;2023-05-28T10:34:28;6.75;;;2.70;;
27491;SDS011;14927;51.210;6.838;2023-05-28T10:37:22;5.63;;;3.00;;
27491;SDS011;14927;51.210;6.838;2023-05-28T10:40:11;6.82;;;2.83;;
27491;SDS011;14927;51.210;6.838;2023-05-28T10:46:35;9.75;;;2.97;;
27491;SDS011;14927;51.210;6.838;2023-05-28T10:49:24;9.43;;;3.85;;
27491;SDS011;14927;51.210;6.838;2023-05-28T10:52:19;5.57;;;2.78;;
27491;SDS011;14927;51.210;6.838;2023-05-28T10:55:09;6.03;;;3.05;;
27491;SDS011;14927;51.210;6.838;2023-05-28T10:58:05;6.47;;;3.17;;
27491;SDS011;14927;51.210;6.838;2023-05-28T11:01:37;7.82;;;3.13;;
27491;SDS011;14927;51.210;6.838;2023-05-28T11:04:06;4.68;;;2.40;;
27491;SDS011;14927;51.210;6.838;2023-05-28T11:06:51;5.13;;;2.90;;
27491;SDS011;14927;51.210;6.838;2023-05-28T11:09:35;4.68;;;2.55;;
27491;SDS011;14927;51.210;6.838;2023-05-28T11:12:20;4.78;;;2.67;;
27491;SDS011;14927;51.210;6.838;2023-05-28T11:15:05;8.52;;;3.40;;
27491;SDS011;14927;51.210;6.838;2023-05-28T11:17:52;8.48;;;3.15;;
27491;SDS011;14927;51.210;6.838;2023-05-28T11:20:36;5.97;;;2.72;;
27491;SDS011;14927;51.210;6.838;2023-05-28T11:23:21;6.45;;;2.80;;
27491;SDS011;14927;51.210;6.838;2023-05-28T11:26:05;7.22;;;2.75;;
27491;SDS011;14927;51.210;6.838;2023-05-28T11:29:06;5.07;;;2.40;;
27491;SDS011;14927;51.210;6.838;2023-05-28T11:31:50;6.72;;;3.10;;
27491;SDS011;14927;51.210;6.838;2023-05-28T11:34:38;5.45;;;2.42;;
27491;SDS011;14927;51.210;6.838;2023-05-28T11:37:27;7.65;;;2.70;;
27491;SDS011;14927;51.210;6.838;2023-05-28T11:40:16;5.13;;;2.40;;
27491;SDS011;14927;51.210;6.838;2023-05-28T11:43:01;4.78;;;2.40;;
27491;SDS011;14927;51.210;6.838;2023-05-28T11:45:48;3.05;;;2.15;;
27491;SDS011;14927;51.210;6.838;2023-05-28T11:48:36;6.15;;;2.40;;
27491;SDS011;14927;51.210;6.838;2023-05-28T11:51:21;6.97;;;2.55;;
27491;SDS011;14927;51.210;6.838;2023-05-28T11:54:06;5.03;;;2.50;;
27491;SDS011;14927;51.210;6.838;2023-05-28T11:56:51;5.93;;;2.47;;
27491;SDS011;14927;51.210;6.838;2023-05-28T11:59:36;6.13;;;2.47;;
27491;SDS011;14927;51.210;6.838;2023-05-28T12:02:21;12.18;;;3.03;;
27491;SDS011;14927;51.210;6.838;2023-05-28T12:05:06;5.18;;;2.20;;
27491;SDS011;14927;51.210;6.838;2023-05-28T12:07:52;6.22;;;2.75;;
27491;SDS011;14927;51.210;6.838;2023-05-28T12:10:40;9.50;;;2.77;;
27491;SDS011;14927;51.210;6.838;2023-05-28T12:13:29;6.68;;;2.63;;
27491;SDS011;14927;51.210;6.838;2023-05-28T12:16:18;5.20;;;2.30;;
27491;SDS011;14927;51.210;6.838;2023-05-28T12:19:03;5.28;;;2.28;;
27491;SDS011;14927;51.210;6.838;2023-05-28T12:21:48;5.78;;;2.75;;
27491;SDS011;14927;51.210;6.838;2023-05-28T12:24:33;6.32;;;2.58;;
27491;SDS011;14927;51.210;6.838;2023-05-28T12:27:17;3.67;;;2.33;;
27491;SDS011;14927;51.210;6.838;2023-05-28T12:30:02;4.40;;;2.63;;
27491;SDS011;14927;51.210;6.838;2023-05-28T12:32:48;3.85;;;2.30;;
27491;SDS011;14927;51.210;6.838;2023-05-28T12:35:37;3.85;;;2.50;;
27491;SDS011;14927;51.210;6.838;2023-05-28T12:38:22;4.68;;;2.67;;
27491;SDS011;14927;51.210;6.838;2023-05-28T12:41:07;5.82;;;2.47;;
27491;SDS011;14927;51.210;6.838;2023-05-28T12:43:51;6.03;;;2.38;;
27491;SDS011;14927;51.210;6.838;2023-05-28T12:46:36;5.97;;;2.53;;
27491;SDS011;14927;51.210;6.838;2023-05-28T12:49:21;7.97;;;2.40;;
27491;SDS011;14927;51.210;6.838;2023-05-28T12:52:06;5.40;;;2.22;;
27491;SDS011;14927;51.210;6.838;2023-05-28T12:54:51;3.47;;;2.00;;
27491;SDS011;14927;51.210;6.838;2023-05-28T12:57:35;5.82;;;2.40;;
27491;SDS011;14927;51.210;6.838;2023-05-28T13:00:20;4.07;;;2.40;;
27491;SDS011;14927;51.210;6.838;2023-05-28T13:03:04;9.30;;;2.50;;
27491;SDS011;14927;51.210;6.838;2023-05-28T13:05:49;3.30;;;2.45;;
27491;SDS011;14927;51.210;6.838;2023-05-28T13:08:34;4.90;;;2.67;;
27491;SDS011;14927;51.210;6.838;2023-05-28T13:11:18;4.70;;;2.60;;
27491;SDS011;14927;51.210;6.838;2023-05-28T13:14:03;5.18;;;2.53;;
27491;SDS011;14927;51.210;6.838;2023-05-28T13:16:48;6.40;;;2.67;;
27491;SDS011;14927;51.210;6.838;2023-05-28T13:19:32;6.93;;;3.00;;
27491;SDS011;14927;51.210;6.838;2023-05-28T13:22:17;3.40;;;2.22;;
27491;SDS011;14927;51.210;6.838;2023-05-28T13:25:05;3.95;;;2.30;;
27491;SDS011;14927;51.210;6.838;2023-05-28T13:27:51;4.13;;;2.30;;
27491;SDS011;14927;51.210;6.838;2023-05-28T13:30:36;4.03;;;2.25;;
27491;SDS011;14927;51.210;6.838;2023-05-28T13:33:20;4.72;;;2.15;;
27491;SDS011;14927;51.210;6.838;2023-05-28T13:36:05;4.65;;;2.50;;
27491;SDS011;14927;51.210;6.838;2023-05-28T13:38:50;6.53;;;2.33;;
27491;SDS011;14927;51.210;6.838;2023-05-28T13:41:36;5.25;;;2.45;;
27491;SDS011;14927;51.210;6.838;2023-05-28T13:44:20;4.50;;;2.10;;
27491;SDS011;14927;51.210;6.838;2023-05-28T13:47:05;5.18;;;2.15;;
27491;SDS011;14927;51.210;6.838;2023-05-28T13:49:50;4.47;;;2.38;;
27491;SDS011;14927;51.210;6.838;2023-05-28T13:52:35;6.63;;;2.30;;
27491;SDS011;14927;51.210;6.838;2023-05-28T13:55:19;4.15;;;1.90;;
27491;SDS011;14927;51.210;6.838;2023-05-28T13:58:04;2.88;;;1.77;;
27491;SDS011;14927;51.210;6.838;2023-05-28T14:00:49;8.80;;;2.30;;
27491;SDS011;14927;51.210;6.838;2023-05-28T14:03:33;4.07;;;2.15;;
27491;SDS011;14927;51.210;6.838;2023-05-28T14:06:18;4.28;;;2.35;;
27491;SDS011;14927;51.210;6.838;2023-05-28T14:09:03;5.53;;;2.40;;
27491;SDS011;14927;51.210;6.838;2023-05-28T14:11:48;6.78;;;2.30;;
27491;SDS011;14927;51.210;6.838;2023-05-28T14:14:33;6.53;;;3.10;;
27491;SDS011;14927;51.210;6.838;2023-05-28T14:17:17;8.07;;;3.28;;
27491;SDS011;14927;51.210;6.838;2023-05-28T14:20:02;4.80;;;2.30;;
27491;SDS011;14927;51.210;6.838;2023-05-28T14:22:48;4.05;;;1.95;;
27491;SDS011;14927;51.210;6.838;2023-05-28T14:25:33;5.78;;;2.25;;
27491;SDS011;14927;51.210;6.838;2023-05-28T14:28:17;4.63;;;2.33;;
27491;SDS011;14927;51.210;6.838;2023-05-28T14:31:02;4.45;;;2.35;;
27491;SDS011;14927;51.210;6.838;2023-05-28T14:33:47;2.92;;;1.88;;
27491;SDS011;14927;51.210;6.838;2023-05-28T14:36:31;4.47;;;2.58;;
27491;SDS011;14927;51.210;6.838;2023-05-28T14:39:16;6.13;;;2.35;;
27491;SDS011;14927;51.210;6.838;2023-05-28T14:42:00;6.25;;;2.75;;
27491;SDS011;14927;51.210;6.838;2023-05-28T14:44:46;8.02;;;2.83;;
27491;SDS011;14927;51.210;6.838;2023-05-28T14:47:31;4.25;;;2.28;;
27491;SDS011;14927;51.210;6.838;2023-05-28T14:50:15;5.57;;;2.88;;
27491;SDS011;14927;51.210;6.838;2023-05-28T14:53:00;4.85;;;2.47;;
27491;SDS011;14927;51.210;6.838;2023-05-28T14:55:45;5.35;;;2.90;;
27491;SDS011;14927;51.210;6.838;2023-05-28T14:58:29;4.80;;;2.58;;
27491;SDS011;14927;51.210;6.838;2023-05-28T15:01:14;4.72;;;2.50;;
27491;SDS011;14927;51.210;6.838;2023-05-28T15:03:58;3.88;;;2.30;;
27491;SDS011;14927;51.210;6.838;2023-05-28T15:06:43;8.00;;;2.42;;
27491;SDS011;14927;51.210;6.838;2023-05-28T15:09:28;5.47;;;2.08;;
27491;SDS011;14927;51.210;6.838;2023-05-28T15:12:12;2.95;;;1.85;;
27491;SDS011;14927;51.210;6.838;2023-05-28T15:14:58;2.58;;;1.83;;
27491;SDS011;14927;51.210;6.838;2023-05-28T15:17:43;4.60;;;2.30;;
27491;SDS011;14927;51.210;6.838;2023-05-28T15:20:27;2.35;;;1.95;;
27491;SDS011;14927;51.210;6.838;2023-05-28T15:23:12;2.58;;;1.98;;
27491;SDS011;14927;51.210;6.838;2023-05-28T15:25:56;4.05;;;2.22;;
27491;SDS011;14927;51.210;6.838;2023-05-28T15:28:41;4.78;;;2.50;;
27491;SDS011;14927;51.210;6.838;2023-05-28T15:31:26;4.13;;;2.03;;
27491;SDS011;14927;51.210;6.838;2023-05-28T15:34:11;4.93;;;1.85;;
27491;SDS011;14927;51.210;6.838;2023-05-28T15:36:56;3.15;;;2.15;;
27491;SDS011;14927;51.210;6.838;2023-05-28T15:39:41;3.92;;;2.10;;
27491;SDS011;14927;51.210;6.838;2023-05-28T15:42:26;6.18;;;2.03;;
27491;SDS011;14927;51.210;6.838;2023-05-28T15:45:11;3.30;;;1.98;;
27491;SDS011;14927;51.210;6.838;2023-05-28T15:47:56;4.90;;;1.75;;
27491;SDS011;14927;51.210;6.838;2023-05-28T15:50:41;5.13;;;2.30;;
27491;SDS011;14927;51.210;6.838;2023-05-28T15:53:25;5.07;;;1.83;;
27491;SDS011;14927;51.210;6.838;2023-05-28T15:56:15;4.75;;;1.88;;
27491;SDS011;14927;51.210;6.838;2023-05-28T15:58:59;3.60;;;1.73;;
27491;SDS011;14927;51.210;6.838;2023-05-28T16:01:44;4.38;;;2.13;;
27491;SDS011;14927;51.210;6.838;2023-05-28T16:04:33;3.75;;;2.00;;
27491;SDS011;14927;51.210;6.838;2023-05-28T16:07:19;3.83;;;2.20;;
27491;SDS011;14927;51.210;6.838;2023-05-28T16:10:04;5.63;;;2.65;;
27491;SDS011;14927;51.210;6.838;2023-05-28T16:12:50;2.90;;;2.00;;
27491;SDS011;14927;51.210;6.838;2023-05-28T16:15:40;3.63;;;1.98;;
27491;SDS011;14927;51.210;6.838;2023-05-28T16:18:25;7.35;;;2.47;;
27491;SDS011;14927;51.210;6.838;2023-05-28T16:21:12;6.38;;;1.80;;
27491;SDS011;14927;51.210;6.838;2023-05-28T16:23:56;4.78;;;1.95;;
27491;SDS011;14927;51.210;6.838;2023-05-28T16:26:41;4.43;;;2.30;;
27491;SDS011;14927;51.210;6.838;2023-05-28T16:29:26;3.55;;;2.15;;
27491;SDS011;14927;51.210;6.838;2023-05-28T16:32:12;6.60;;;2.53;;
27491;SDS011;14927;51.210;6.838;2023-05-28T16:34:59;5.50;;;2.08;;
27491;SDS011;14927;51.210;6.838;2023-05-28T16:37:44;2.90;;;1.70;;
27491;SDS011;14927;51.210;6.838;2023-05-28T16:40:29;9.65;;;2.95;;